Time;durP1;ratioP1;P1;durP2;ratioP2;P2;SDS_P1;SDS_P2;PMS_P1;PMS_P2;Temp;Humidity;BMP_temperature;BMP_pressure;BME280_temperature;BME280_humidity;BME280_pressure;Samples;Min_cycle;Max_cycle;Signal;HPM_P1;HPM_P2
2023/09/06 00:00:32;;;;;;;7.38;2.78;;;;;;;;;;4928442;29;20032;-86
2023/09/06 00:02:58;;;;;;;11.10;5.85;;;;;;;;;;4944345;29;20028;-86
2023/09/06 00:05:25;;;;;;;4.10;2.33;;;;;;;;;;4931690;29;20032;-87
2023/09/06 00:07:51;;;;;;;5.65;2.80;;;;;;;;;;4946595;29;20028;-87
2023/09/06 00:10:18;;;;;;;11.65;4.35;;;;;;;;;;4945265;29;20040;-89
2023/09/06 00:12:45;;;;;;;6.53;2.78;;;;;;;;;;4929250;29;20036;-88
2023/09/06 00:15:11;;;;;;;7.03;3.90;;;;;;;;;;4931067;29;20032;-88
2023/09/06 00:17:40;;;;;;;5.82;3.35;;;;;;;;;;4926574;29;20028;-87
2023/09/06 00:20:22;;;;;;;5.13;3.03;;;;;;;;;;4927489;29;20036;-88
2023/09/06 00:23:00;;;;;;;7.20;2.92;;;;;;;;;;4926185;29;20028;-89
2023/09/06 00:25:27;;;;;;;5.15;2.40;;;;;;;;;;4927619;29;20024;-89
2023/09/06 00:27:54;;;;;;;4.38;2.40;;;;;;;;;;4944819;29;20032;-88
2023/09/06 00:30:20;;;;;;;6.50;2.45;;;;;;;;;;4927554;29;20055;-89
2023/09/06 00:32:53;;;;;;;4.38;2.70;;;;;;;;;;4922149;29;20044;-86
2023/09/06 00:35:22;;;;;;;6.25;2.85;;;19.30;99.90;;;;;;4944108;29;20032;-88
2023/09/06 00:37:48;;;;;;;3.13;2.28;;;;;;;;;;4929391;29;20115;-88
2023/09/06 00:40:21;;;;;;;5.20;2.88;;;;;;;;;;4947552;29;20031;-86
2023/09/06 00:43:01;;;;;;;5.82;2.95;;;;;;;;;;4929706;29;20036;-88
2023/09/06 00:45:47;;;;;;;4.78;2.25;;;;;;;;;;4930034;29;20040;-88
2023/09/06 00:48:15;;;;;;;5.65;2.70;;;;;;;;;;4929993;29;20060;-88
2023/09/06 00:50:44;;;;;;;5.25;2.50;;;;;;;;;;4934180;29;20526;-87
2023/09/06 00:53:10;;;;;;;5.05;2.63;;;;;;;;;;4930832;29;20516;-87
2023/09/06 00:55:37;;;;;;;4.45;2.78;;;;;;;;;;4945351;29;20384;-88
2023/09/06 00:58:09;;;;;;;4.88;2.50;;;;;;;;;;4932914;29;20021;-88
2023/09/06 01:00:35;;;;;;;3.90;2.40;;;;;;;;;;4930315;29;20032;-89
2023/09/06 01:03:04;;;;;;;4.93;2.80;;;;;;;;;;4948407;29;20107;-88
2023/09/06 01:05:33;;;;;;;8.30;2.83;;;;;;;;;;4948461;29;20039;-88
2023/09/06 01:08:02;;;;;;;5.50;2.90;;;;;;;;;;4933267;29;20303;-87
2023/09/06 01:10:28;;;;;;;4.57;2.60;;;;;;;;;;4927779;29;20626;-87
2023/09/06 01:12:55;;;;;;;3.47;2.58;;;;;;;;;;4948447;29;20028;-86
2023/09/06 01:15:21;;;;;;;4.95;2.85;;;;;;;;;;4931684;29;20052;-84
2023/09/06 01:17:49;;;;;;;4.45;3.10;;;;;;;;;;4932393;29;20028;-86
2023/09/06 01:20:38;;;;;;;7.50;3.22;;;18.70;99.90;;;;;;4947113;29;20100;-88
2023/09/06 01:23:06;;;;;;;5.50;2.63;;;;;;;;;;4932921;29;20036;-90
2023/09/06 01:25:33;;;;;;;4.55;3.08;;;;;;;;;;4932983;29;20064;-85
2023/09/06 01:28:00;;;;;;;5.07;2.85;;;;;;;;;;4945162;29;20092;-88
2023/09/06 01:30:31;;;;;;;6.30;3.35;;;;;;;;;;4947284;29;20040;-88
2023/09/06 01:32:57;;;;;;;6.63;2.67;;;;;;;;;;4931742;29;20024;-86
2023/09/06 01:35:23;;;;;;;5.22;3.05;;;;;;;;;;4933588;29;20039;-89
2023/09/06 01:37:51;;;;;;;6.28;3.15;;;;;;;;;;4928363;29;20024;-89
2023/09/06 01:40:17;;;;;;;8.05;3.42;;;;;;;;;;4927956;29;20084;-88
2023/09/06 01:42:45;;;;;;;6.97;3.17;;;;;;;;;;4933216;29;20028;-87
2023/09/06 01:45:11;;;;;;;5.47;3.47;;;;;;;;;;4932322;29;20032;-86
2023/09/06 01:47:38;;;;;;;4.72;2.72;;;;;;;;;;4933658;29;20058;-89
2023/09/06 01:50:05;;;;;;;5.15;3.20;;;;;;;;;;4932690;29;20036;-89
2023/09/06 01:52:31;;;;;;;5.00;2.90;;;;;;;;;;4928430;29;20028;-89
2023/09/06 01:54:57;;;;;;;5.45;3.00;;;;;;;;;;4938154;29;20028;-87
2023/09/06 01:57:23;;;;;;;4.63;2.80;;;;;;;;;;4945774;29;20029;-89
2023/09/06 01:59:55;;;;;;;8.35;3.30;;;;;;;;;;4932234;29;20032;-89
2023/09/06 02:02:21;;;;;;;5.43;3.22;;;;;;;;;;4932003;29;20522;-88
2023/09/06 02:04:48;;;;;;;5.57;3.15;;;;;;;;;;4933966;29;20032;-88
2023/09/06 02:07:14;;;;;;;9.30;3.70;;;;;;;;;;4949200;29;20036;-88
2023/09/06 02:09:42;;;;;;;6.40;3.10;;;;;;;;;;4948986;29;20080;-89
2023/09/06 02:12:08;;;;;;;7.75;3.30;;;;;;;;;;4947160;29;20032;-89
2023/09/06 02:14:34;;;;;;;5.63;3.00;;;;;;;;;;4948041;29;20036;-88
2023/09/06 02:17:01;;;;;;;6.47;3.65;;;;;;;;;;4934219;29;20047;-88
2023/09/06 02:19:27;;;;;;;5.43;2.90;;;;;;;;;;4933173;29;20033;-89
2023/09/06 02:21:54;;;;;;;4.85;3.20;;;;;;;;;;4944679;29;20052;-88
2023/09/06 02:24:22;;;;;;;7.40;3.13;;;;;;;;;;4947485;29;20067;-88
2023/09/06 02:26:49;;;;;;;7.15;3.15;;;;;;;;;;4935185;29;20040;-89
2023/09/06 02:29:16;;;;;;;5.93;3.50;;;;;;;;;;4946000;29;20028;-88
2023/09/06 02:31:45;;;;;;;5.90;3.25;;;;;;;;;;4946832;29;20034;-88
2023/09/06 02:34:13;;;;;;;4.80;2.90;;;;;;;;;;4945151;29;20084;-89
2023/09/06 02:36:40;;;;;;;4.95;3.13;;;;;;;;;;4931381;29;20040;-88
2023/09/06 02:39:06;;;;;;;7.35;3.50;;;;;;;;;;4947066;29;20040;-89
2023/09/06 02:41:35;;;;;;;5.47;3.22;;;;;;;;;;4931341;29;20529;-87
2023/09/06 02:44:01;;;;;;;5.95;3.22;;;;;;;;;;4932022;29;20098;-87
2023/09/06 02:46:29;;;;;;;4.03;2.92;;;;;;;;;;4947936;29;20036;-87
2023/09/06 02:48:58;;;;;;;7.53;3.00;;;;;;;;;;4930604;29;20059;-87
2023/09/06 02:51:29;;;;;;;6.53;3.15;;;;;;;;;;4927550;29;20047;-85
2023/09/06 02:53:57;;;;;;;5.47;3.15;;;;;;;;;;4929537;29;20031;-87
2023/09/06 02:56:23;;;;;;;4.88;3.05;;;;;;;;;;4930834;29;20024;-88
2023/09/06 02:58:49;;;;;;;5.78;3.10;;;;;;;;;;4947310;29;20032;-88
2023/09/06 03:01:25;;;;;;;5.35;3.28;;;;;;;;;;4944981;29;20032;-90
2023/09/06 03:03:53;;;;;;;5.70;2.85;;;;;;;;;;4945513;29;20052;-87
2023/09/06 03:06:19;;;;;;;3.38;2.53;;;;;;;;;;4947489;29;20035;-87
2023/09/06 03:08:46;;;;;;;4.07;3.08;;;;;;;;;;4945569;29;20043;-88
2023/09/06 03:11:14;;;;;;;7.32;3.25;;;;;;;;;;4932386;29;20031;-86
2023/09/06 03:13:42;;;;;;;4.93;3.20;;;;;;;;;;4926818;29;20028;-88
2023/09/06 03:16:13;;;;;;;4.82;2.97;;;;;;;;;;4946772;29;20068;-87
2023/09/06 03:18:39;;;;;;;5.93;3.70;;;;;;;;;;4947200;29;20043;-87
2023/09/06 03:21:07;;;;;;;6.85;3.47;;;;;;;;;;4935752;29;20032;-88
2023/09/06 03:23:33;;;;;;;5.30;3.38;;;;;;;;;;4945027;29;20092;-87
2023/09/06 03:26:00;;;;;;;4.43;2.85;;;;;;;;;;4944162;29;20068;-88
2023/09/06 03:28:26;;;;;;;6.95;3.45;;;;;;;;;;4943000;29;20042;-88
2023/09/06 03:30:52;;;;;;;6.40;3.50;;;;;;;;;;4944987;29;20056;-87
2023/09/06 03:33:18;;;;;;;4.97;3.28;;;;;;;;;;4929844;29;20033;-88
2023/09/06 03:35:48;;;;;;;4.47;3.03;;;;;;;;;;4945236;29;20032;-88
2023/09/06 03:38:19;;;;;;;6.22;3.28;;;;;;;;;;4926155;29;20048;-87
2023/09/06 03:40:45;;;;;;;5.18;3.28;;;;;;;;;;4946689;29;20040;-88
2023/09/06 03:43:15;;;;;;;5.68;3.15;;;;;;;;;;4928199;29;20071;-88
2023/09/06 03:45:45;;;;;;;;;;;17.40;99.90;;;;;;4945221;29;20044;-89
2023/09/06 03:48:12;;;;;;;5.35;3.67;;;;;;;;;;4927348;29;19915;-88
2023/09/06 03:50:40;;;;;;;8.77;3.70;;;;;;;;;;4944425;29;20036;-89
2023/09/06 03:53:06;;;;;;;9.32;3.63;;;;;;;;;;4938695;29;20021;-87
2023/09/06 03:55:32;;;;;;;5.65;3.13;;;;;;;;;;4930196;29;20035;-88
2023/09/06 03:57:59;;;;;;;5.75;3.47;;;;;;;;;;4940820;29;20024;-86
2023/09/06 04:00:29;;;;;;;6.70;3.75;;;;;;;;;;4943731;29;20119;-89
2023/09/06 04:02:56;;;;;;;5.47;3.80;;;;;;;;;;4943520;29;20056;-89
2023/09/06 04:05:25;;;;;;;5.22;3.63;;;;;;;;;;4943849;29;20135;-87
2023/09/06 04:07:53;;;;;;;8.82;3.58;;;;;;;;;;4927955;29;20498;-88
2023/09/06 04:10:21;;;;;;;7.03;3.45;;;;;;;;;;4927245;29;20097;-87
2023/09/06 04:12:50;;;;;;;6.00;3.40;;;;;;;;;;4942238;29;20032;-87
2023/09/06 04:15:21;;;;;;;8.85;3.97;;;;;;;;;;4929014;29;20024;-89
2023/09/06 04:17:49;;;;;;;7.20;3.90;;;;;;;;;;4929139;29;20043;-89
2023/09/06 04:20:19;;;;;;;6.90;3.47;;;;;;;;;;4929701;29;20072;-89
2023/09/06 04:22:46;;;;;;;7.28;4.10;;;;;;;;;;4926833;29;20028;-88
2023/09/06 04:25:22;;;;;;;5.70;3.88;;;;;;;;;;4927130;29;20032;-88
2023/09/06 04:27:49;;;;;;;10.20;5.05;;;;;;;;;;4942359;29;20036;-89
2023/09/06 04:30:16;;;;;;;7.97;4.38;;;;;;;;;;4926615;29;20047;-90
2023/09/06 04:32:43;;;;;;;8.45;4.80;;;;;;;;;;4926129;29;20036;-88
2023/09/06 04:35:10;;;;;;;8.68;5.15;;;;;;;;;;4945250;29;20115;-89
2023/09/06 04:37:38;;;;;;;9.40;4.80;;;;;;;;;;4946797;29;20035;-86
2023/09/06 04:40:05;;;;;;;8.68;5.22;;;;;;;;;;4949776;29;20039;-88
2023/09/06 04:42:32;;;;;;;8.48;5.30;;;;;;;;;;4926479;29;20059;-90
2023/09/06 04:44:58;;;;;;;10.98;5.57;;;;;;;;;;4936398;29;20032;-88
2023/09/06 04:47:24;;;;;;;7.53;5.15;;;;;;;;;;4934293;28;20120;-90
2023/09/06 04:49:50;;;;;;;7.32;4.82;;;;;;;;;;4931166;29;20043;-89
2023/09/06 04:52:16;;;;;;;8.35;4.57;;;;;;;;;;4946734;29;20039;-90
2023/09/06 04:54:43;;;;;;;9.05;4.70;;;;;;;;;;4928430;29;20037;-90
2023/09/06 04:57:10;;;;;;;6.65;4.15;;;;;;;;;;4949029;29;20052;-90
2023/09/06 04:59:37;;;;;;;8.38;4.40;;;;;;;;;;4933124;29;20038;-90
2023/09/06 05:02:04;;;;;;;9.25;4.47;;;;;;;;;;4931521;29;20028;-87
2023/09/06 05:04:34;;;;;;;7.30;4.50;;;;;;;;;;4931989;29;20035;-89
2023/09/06 05:07:05;;;;;;;;;;;16.80;99.90;;;;;;4929721;29;20032;-83
2023/09/06 05:09:31;;;;;;;5.57;3.60;;;;;;;;;;4928252;29;19998;-86
2023/09/06 05:12:00;;;;;;;7.65;4.28;;;;;;;;;;4944446;29;20119;-86
2023/09/06 05:14:26;;;;;;;7.45;3.60;;;;;;;;;;4932557;29;20040;-86
2023/09/06 05:16:53;;;;;;;6.65;3.75;;;;;;;;;;4928201;29;20044;-86
2023/09/06 05:19:21;;;;;;;8.18;5.13;;;;;;;;;;4930762;29;20059;-84
2023/09/06 05:21:50;;;;;;;9.95;4.20;;;;;;;;;;4943551;29;20090;-86
2023/09/06 05:24:22;;;;;;;6.07;4.00;;;;;;;;;;4944510;29;20032;-86
2023/09/06 05:30:11;;;;;;;6.97;3.90;;;;;;;;;;4929937;29;20030;-84
2023/09/06 05:32:37;;;;;;;6.82;3.90;;;;;;;;;;4944913;29;20083;-88
2023/09/06 05:35:06;;;;;;;5.90;4.03;;;;;;;;;;4945115;29;20047;-86
2023/09/06 05:37:35;;;;;;;7.35;4.13;;;;;;;;;;4928943;29;20119;-85
2023/09/06 05:40:04;;;;;;;7.05;4.35;;;;;;;;;;4927194;29;20024;-86
2023/09/06 05:42:47;;;;;;;7.43;4.05;;;;;;;;;;4925725;29;20401;-87
2023/09/06 05:45:13;;;;;;;8.45;3.95;;;;;;;;;;4938205;29;20032;-86
2023/09/06 05:47:43;;;;;;;6.97;4.20;;;;;;;;;;4942459;29;20032;-85
2023/09/06 05:50:12;;;;;;;9.05;4.35;;;;;;;;;;4929150;29;20024;-86
2023/09/06 05:52:38;;;;;;;8.40;4.00;;;;;;;;;;4946358;29;20044;-86
2023/09/06 05:55:10;;;;;;;7.60;4.45;;;;;;;;;;4926169;29;20435;-86
2023/09/06 05:57:38;;;;;;;7.40;4.35;;;;;;;;;;4927246;29;20032;-88
2023/09/06 06:00:12;;;;;;;7.05;4.40;;;;;;;;;;4925972;29;20037;-87
2023/09/06 06:02:38;;;;;;;6.95;3.78;;;;;;;;;;4931879;29;20028;-84
2023/09/06 06:05:04;;;;;;;7.22;3.60;;;;;;;;;;4941053;29;20036;-89
2023/09/06 06:07:30;;;;;;;7.57;3.97;;;;;;;;;;4943609;29;20032;-86
2023/09/06 06:09:58;;;;;;;7.07;4.22;;;;;;;;;;4928768;29;20471;-86
2023/09/06 06:12:24;;;;;;;9.77;3.67;;;;;;;;;;4927058;29;20036;-84
2023/09/06 06:14:53;;;;;;;6.38;4.10;;;;;;;;;;4928551;29;20047;-85
2023/09/06 06:17:20;;;;;;;9.93;4.20;;;;;;;;;;4951176;29;20024;-84
2023/09/06 06:19:46;;;;;;;8.65;4.15;;;;;;;;;;4948257;29;20068;-85
2023/09/06 06:22:13;;;;;;;25.98;6.88;;;;;;;;;;4931712;29;20028;-87
2023/09/06 06:24:39;;;;;;;25.77;5.97;;;;;;;;;;4926057;29;20028;-88
2023/09/06 06:27:06;;;;;;;9.02;4.45;;;;;;;;;;4929031;29;20039;-86
2023/09/06 06:29:32;;;;;;;11.43;4.90;;;;;;;;;;4926696;29;20040;-88
2023/09/06 06:31:58;;;;;;;14.43;5.05;;;;;;;;;;4938922;29;20032;-88
2023/09/06 06:34:27;;;;;;;9.13;4.05;;;;;;;;;;4941296;29;20043;-85
2023/09/06 06:36:53;;;;;;;9.98;4.55;;;;;;;;;;4926137;29;20383;-89
2023/09/06 06:39:19;;;;;;;6.15;3.88;;;;;;;;;;4937839;29;20084;-86
2023/09/06 06:41:45;;;;;;;8.45;4.85;;;;;;;;;;4937769;29;20044;-85
2023/09/06 06:44:11;;;;;;;7.45;3.80;;;;;;;;;;4940721;29;20189;-88
2023/09/06 06:46:38;;;;;;;7.32;3.65;;;;;;;;;;4925698;29;20047;-84
2023/09/06 06:49:07;;;;;;;5.40;3.45;;;;;;;;;;4927076;29;20028;-87
2023/09/06 06:51:40;;;;;;;6.18;3.33;;;;;;;;;;4936507;29;20116;-86
2023/09/06 06:54:07;;;;;;;6.82;3.40;;;;;;;;;;4923854;29;20061;-87
2023/09/06 06:56:33;;;;;;;4.63;3.17;;;;;;;;;;4924648;29;20091;-87
2023/09/06 06:59:00;;;;;;;5.30;3.33;;;;;;;;;;4924790;29;20032;-89
2023/09/06 07:01:27;;;;;;;5.95;3.15;;;;;;;;;;4940143;29;20028;-87
2023/09/06 07:03:53;;;;;;;7.30;3.40;;;;;;;;;;4928402;29;20036;-87
2023/09/06 07:06:19;;;;;;;6.93;3.40;;;;;;;;;;4942576;29;20091;-88
2023/09/06 07:08:45;;;;;;;6.68;4.13;;;;;;;;;;4939242;29;20060;-87
2023/09/06 07:11:11;;;;;;;5.82;3.30;;;;;;;;;;4918119;29;20081;-84
2023/09/06 07:13:38;;;;;;;5.53;3.35;;;;;;;;;;4921920;29;20061;-87
2023/09/06 07:16:04;;;;;;;7.90;3.50;;;;;;;;;;4940649;29;20080;-86
2023/09/06 07:18:30;;;;;;;4.40;3.10;;;;;;;;;;4925296;29;20032;-85
2023/09/06 07:20:56;;;;;;;4.63;3.20;;;;;;;;;;4938201;29;20462;-86
2023/09/06 07:23:22;;;;;;;6.03;3.55;;;19.90;99.90;;;;;;4938987;29;20039;-87
2023/09/06 07:25:48;;;;;;;7.82;3.50;;;20.10;99.90;;;;;;4937493;29;20028;-87
2023/09/06 07:28:14;;;;;;;7.78;3.85;;;;;;;;;;4923639;29;20075;-87
2023/09/06 07:30:41;;;;;;;6.15;3.38;;;20.30;99.90;;;;;;4937106;29;20040;-88
2023/09/06 07:33:08;;;;;;;6.15;3.47;;;;;;;;;;4937007;29;20024;-87
2023/09/06 07:35:33;;;;;;;7.90;3.53;;;;;;;;;;4937257;29;20405;-88
2023/09/06 07:38:00;;;;;;;5.22;3.28;;;;;;;;;;4922690;29;20024;-87
2023/09/06 07:40:26;;;;;;;6.07;3.50;;;;;;;;;;4919162;29;20028;-88
2023/09/06 07:42:52;;;;;;;5.82;3.72;;;;;;;;;;4921468;29;20031;-87
2023/09/06 07:45:18;;;;;;;5.88;3.28;;;;;;;;;;4920163;29;20028;-88
2023/09/06 07:47:45;;;;;;;6.13;3.38;;;;;;;;;;4919199;29;20064;-87
2023/09/06 07:50:11;;;;;;;7.45;3.70;;;;;;;;;;4937870;29;20051;-87
2023/09/06 07:52:37;;;;;;;5.32;3.33;;;;;;;;;;4936240;29;20029;-88
2023/09/06 07:55:04;;;;;;;6.85;3.45;;;21.20;99.90;;;;;;4946633;29;20048;-86
2023/09/06 07:57:30;;;;;;;12.77;4.47;;;;;;;;;;4942584;29;20024;-86
2023/09/06 07:59:56;;;;;;;5.90;3.80;;;;;;;;;;4946401;29;20029;-89
2023/09/06 08:02:22;;;;;;;5.25;3.17;;;;;;;;;;4928173;29;20063;-86
2023/09/06 08:04:50;;;;;;;5.63;3.33;;;;;;;;;;4943763;29;20036;-86
2023/09/06 08:07:16;;;;;;;5.38;3.42;;;;;;;;;;4947004;29;20036;-87
2023/09/06 08:09:42;;;;;;;7.57;3.50;;;;;;;;;;4945475;29;20044;-86
2023/09/06 08:12:09;;;;;;;6.97;3.20;;;;;;;;;;4945327;29;20036;-87
2023/09/06 08:14:35;;;;;;;6.22;3.03;;;;;;;;;;4929242;29;20024;-87
2023/09/06 08:17:01;;;;;;;4.60;3.03;;;;;;;;;;4930212;29;20032;-88
2023/09/06 08:19:27;;;;;;;7.97;3.25;;;;;;;;;;4944393;29;20020;-87
2023/09/06 08:21:54;;;;;;;7.38;3.00;;;;;;;;;;4945691;29;20036;-87
2023/09/06 08:24:20;;;;;;;6.35;3.70;;;;;;;;;;4945249;29;20035;-88
2023/09/06 08:26:48;;;;;;;7.38;3.40;;;;;;;;;;4945487;29;20055;-88
2023/09/06 08:29:14;;;;;;;5.60;3.60;;;;;;;;;;4925551;29;20055;-88
2023/09/06 08:31:40;;;;;;;6.75;3.38;;;;;;;;;;4927727;29;20036;-86
2023/09/06 08:34:07;;;;;;;5.03;3.28;;;22.50;99.90;;;;;;4939223;29;20091;-88
2023/09/06 08:36:33;;;;;;;5.70;3.22;;;;;;;;;;4923645;29;20052;-87
2023/09/06 08:39:00;;;;;;;5.72;3.30;;;;;;;;;;4940943;29;20035;-87
2023/09/06 08:41:26;;;;;;;4.30;3.10;;;;;;;;;;4945156;29;20072;-89
2023/09/06 08:43:53;;;;;;;4.32;2.83;;;;;;;;;;4936957;29;20112;-85
2023/09/06 08:46:27;;;;;;;6.38;3.35;;;22.70;99.90;;;;;;4921468;29;20032;-88
2023/09/06 08:48:53;;;;;;;3.88;2.80;;;;;;;;;;4919778;29;20025;-87
2023/09/06 08:51:22;;;;;;;7.90;3.22;;;;;;;;;;4931926;29;20032;-85
2023/09/06 08:53:49;;;;;;;5.55;2.95;;;;;;;;;;4920142;29;20032;-88
2023/09/06 08:56:15;;;;;;;4.10;2.90;;;;;;;;;;4935878;29;20036;-87
2023/09/06 08:58:41;;;;;;;5.18;2.90;;;;;;;;;;4925186;29;20498;-87
2023/09/06 09:01:08;;;;;;;5.28;3.60;;;;;;;;;;4923035;29;20038;-87
2023/09/06 09:03:34;;;;;;;9.15;3.22;;;;;;;;;;4940619;29;20035;-87
2023/09/06 09:06:02;;;;;;;5.55;3.20;;;23.90;99.90;;;;;;4941950;29;20032;-87
2023/09/06 09:08:30;;;;;;;4.03;3.03;;;24.10;99.90;;;;;;4942457;29;20372;-87
2023/09/06 09:11:18;;;;;;;4.90;2.92;;;24.20;99.90;;;;;;4941516;29;20474;-85
2023/09/06 09:13:45;;;;;;;5.95;3.35;;;24.10;99.90;;;;;;4927523;29;20032;-87
2023/09/06 09:16:12;;;;;;;5.90;3.20;;;24.40;99.90;;;;;;4939542;29;20037;-85
2023/09/06 09:18:39;;;;;;;4.75;3.45;;;24.50;99.90;;;;;;4919702;29;20037;-86
2023/09/06 09:21:11;;;;;;;5.35;3.13;;;24.50;99.90;;;;;;4924332;29;20024;-86
2023/09/06 09:23:55;;;;;;;6.25;3.28;;;24.70;99.90;;;;;;4938861;29;20108;-87
2023/09/06 09:26:21;;;;;;;4.47;3.20;;;24.70;99.90;;;;;;4924806;29;20323;-87
2023/09/06 09:28:47;;;;;;;4.70;2.90;;;;;;;;;;4925234;29;20056;-85
2023/09/06 09:31:15;;;;;;;5.18;3.35;;;24.90;99.90;;;;;;4924387;29;20028;-86
2023/09/06 09:36:41;;;;;;;4.50;3.03;;;25.00;99.00;;;;;;4950049;28;20059;-78
2023/09/06 09:39:27;;;;;;;5.20;3.35;;;;;;;;;;4931337;29;20039;-78
2023/09/06 09:42:08;;;;;;;6.75;3.58;;;25.00;98.80;;;;;;4945333;28;20028;-78
2023/09/06 09:44:47;;;;;;;5.25;3.10;;;25.10;98.90;;;;;;4944751;28;20062;-78
2023/09/06 09:47:27;;;;;;;5.72;3.30;;;25.10;98.60;;;;;;4934016;29;20039;-78
2023/09/06 09:50:14;;;;;;;5.63;3.10;;;25.20;98.80;;;;;;4948585;28;20452;-78
2023/09/06 09:53:03;;;;;;;5.88;3.00;;;25.40;98.80;;;;;;4937317;28;20516;-78
2023/09/06 09:55:35;;;;;;;5.03;3.03;;;25.50;98.50;;;;;;4935581;29;20052;-79
2023/09/06 09:58:25;;;;;;;5.25;3.50;;;25.70;98.30;;;;;;4950014;28;20088;-80
2023/09/06 10:01:10;;;;;;;6.60;3.58;;;;;;;;;;4938959;29;20061;-79
2023/09/06 10:04:28;;;;;;;4.82;3.00;;;25.90;97.90;;;;;;4954306;28;20036;-79
2023/09/06 10:07:33;;;;;;;8.05;3.47;;;25.90;97.80;;;;;;4930239;29;20036;-79
2023/09/06 10:10:05;;;;;;;5.07;3.40;;;25.90;97.80;;;;;;4934051;29;20048;-79
2023/09/06 10:12:40;;;;;;;6.35;3.60;;;26.10;97.90;;;;;;4935605;29;20056;-79
2023/09/06 10:15:37;;;;;;;4.90;3.35;;;26.00;97.50;;;;;;4934413;29;20039;-79
2023/09/06 10:18:28;;;;;;;6.50;3.75;;;26.10;97.40;;;;;;4947908;29;20032;-79
2023/09/06 10:21:15;;;;;;;5.43;3.22;;;25.90;97.70;;;;;;4938534;29;20218;-79
2023/09/06 10:23:54;;;;;;;6.50;3.40;;;25.90;97.70;;;;;;4941180;28;20048;-79
2023/09/06 10:26:35;;;;;;;6.60;3.42;;;25.90;97.70;;;;;;4936414;29;20054;-79
2023/09/06 10:29:32;;;;;;;6.18;3.22;;;26.30;97.60;;;;;;4950221;28;20038;-79
2023/09/06 10:32:24;;;;;;;8.55;3.80;;;26.40;97.40;;;;;;4938448;29;20043;-79
2023/09/06 10:38:37;;;;;;;5.95;3.40;;;26.70;96.90;;;;;;4937473;29;20039;-79
2023/09/06 10:41:55;;;;;;;4.75;3.25;;;26.50;96.60;;;;;;4928013;29;20095;-79
2023/09/06 10:45:38;;;;;;;4.50;3.40;;;26.40;96.90;;;;;;4932602;29;20032;-79
2023/09/06 10:48:40;;;;;;;5.53;3.33;;;26.50;96.80;;;;;;4923999;29;20036;-79
2023/09/06 10:51:39;;;;;;;5.63;3.30;;;26.60;96.60;;;;;;4935475;29;20052;-81
2023/09/06 10:54:38;;;;;;;4.65;3.15;;;26.80;96.70;;;;;;4904715;29;20075;-81
2023/09/06 10:57:39;;;;;;;4.18;3.10;;;;;;;;;;4919325;29;20465;-81
2023/09/06 11:01:12;;;;;;;4.90;3.35;;;26.90;96.70;;;;;;4939176;29;20032;-80
2023/09/06 11:04:09;;;;;;;7.07;4.05;;;;;;;;;;4950596;28;20052;-80
2023/09/06 11:06:58;;;;;;;6.72;3.63;;;27.20;96.70;;;;;;4937250;29;20039;-80
2023/09/06 11:09:58;;;;;;;4.85;3.38;;;27.20;95.90;;;;;;4930711;29;20066;-81
2023/09/06 11:16:18;;;;;;;6.72;3.25;;;27.40;96.20;;;;;;4940674;29;20133;-80
2023/09/06 11:19:02;;;;;;;4.80;3.30;;;27.40;96.20;;;;;;4916874;29;20039;-80
2023/09/06 11:21:50;;;;;;;4.60;3.58;;;27.60;96.00;;;;;;4924999;29;20043;-80
2023/09/06 11:24:38;;;;;;;6.97;3.88;;;27.50;96.10;;;;;;4933061;29;20070;-79
2023/09/06 11:27:37;;;;;;;3.80;2.97;;;27.50;96.30;;;;;;4933252;29;20036;-79
2023/09/06 11:30:21;;;;;;;4.20;3.17;;;27.60;96.20;;;;;;4939981;29;20386;-79
2023/09/06 11:33:07;;;;;;;5.88;4.03;;;27.60;96.10;;;;;;4923908;29;20097;-79
2023/09/06 11:36:09;;;;;;;9.50;5.57;;;27.70;95.90;;;;;;4925282;29;20043;-79
2023/09/06 11:38:57;;;;;;;9.57;3.55;;;27.70;95.90;;;;;;4931840;28;20493;-79
2023/09/06 11:41:23;;;;;;;6.45;4.15;;;;;;;;;;4943473;28;20036;-79
2023/09/06 11:43:59;;;;;;;4.63;3.33;;;27.90;95.70;;;;;;4933240;29;20055;-79
2023/09/06 11:46:30;;;;;;;5.40;3.60;;;;;;;;;;4930658;29;20066;-79
2023/09/06 11:48:57;;;;;;;6.53;3.53;;;;;;;;;;4944415;28;20064;-79
2023/09/06 11:51:25;;;;;;;4.72;3.40;;;;;;;;;;4949698;28;20050;-80
2023/09/06 11:54:03;;;;;;;6.82;3.30;;;;;;;;;;4932025;28;20064;-80
2023/09/06 11:56:57;;;;;;;5.43;3.42;;;28.10;95.10;;;;;;4972117;28;20059;-80
2023/09/06 11:59:38;;;;;;;6.55;3.13;;;28.10;94.80;;;;;;4937013;28;20118;-80
2023/09/06 12:02:21;;;;;;;5.72;3.38;;;28.30;95.00;;;;;;4950934;28;20016;-80
2023/09/06 12:05:16;;;;;;;4.43;3.20;;;28.30;94.70;;;;;;4936161;29;20041;-78
2023/09/06 12:08:41;;;;;;;4.55;3.20;;;28.40;94.80;;;;;;4931892;29;20111;-78
2023/09/06 12:11:11;;;;;;;4.75;3.17;;;;;;;;;;4890119;29;20048;-79
2023/09/06 12:13:38;;;;;;;4.85;3.30;;;28.70;93.90;;;;;;4930153;29;20031;-79
2023/09/06 12:16:23;;;;;;;3.45;2.80;;;28.50;92.40;;;;;;4928233;29;20043;-80
2023/09/06 12:22:50;;;;;;;5.35;3.35;;;28.70;91.50;;;;;;4929944;29;20039;-79
2023/09/06 12:25:18;;;;;;;5.32;3.20;;;;;;;;;;4943999;28;20044;-80
2023/09/06 12:27:45;;;;;;;4.18;2.95;;;29.10;91.60;;;;;;4929292;29;20088;-80
2023/09/06 12:30:12;;;;;;;4.13;3.03;;;29.20;91.40;;;;;;4924422;29;20071;-80
2023/09/06 12:33:22;;;;;;;4.47;3.00;;;29.30;91.00;;;;;;4930385;29;20035;-79
2023/09/06 12:36:01;;;;;;;4.80;2.97;;;29.30;91.00;;;;;;4932131;29;20032;-79
2023/09/06 12:38:48;;;;;;;5.32;2.85;;;29.40;90.50;;;;;;4929173;29;20035;-79
2023/09/06 12:41:34;;;;;;;3.83;2.75;;;;;;;;;;4929671;29;20114;-79
2023/09/06 12:44:13;;;;;;;4.45;2.80;;;29.40;89.00;;;;;;4934154;29;20028;-78
2023/09/06 12:46:56;;;;;;;5.78;3.10;;;29.40;88.60;;;;;;4934341;29;20040;-79
2023/09/06 12:50:05;;;;;;;5.45;2.80;;;29.30;88.60;;;;;;4938310;29;20103;-79
2023/09/06 12:53:29;;;;;;;7.68;4.47;;;29.30;89.30;;;;;;4940022;29;20103;-79
2023/09/06 12:56:23;;;;;;;4.50;3.00;;;29.50;88.80;;;;;;4939637;28;20197;-79
2023/09/06 12:59:18;;;;;;;5.82;3.10;;;29.60;88.50;;;;;;4914171;29;20405;-79
2023/09/06 13:02:44;;;;;;;7.18;2.97;;;29.60;86.90;;;;;;4932222;28;20130;-79
2023/09/06 13:05:11;;;;;;;3.55;2.80;;;;;;;;;;4925262;29;20465;-79
2023/09/06 13:07:37;;;;;;;4.07;2.83;;;29.40;86.30;;;;;;4954129;28;20032;-78
2023/09/06 13:10:06;;;;;;;5.10;3.05;;;;;;;;;;4938300;29;20043;-79
2023/09/06 13:16:41;;;;;;;4.45;2.53;;;29.80;83.60;;;;;;4918361;29;20312;-79
2023/09/06 13:19:32;;;;;;;3.35;2.58;;;29.80;83.70;;;;;;4926377;29;20103;-79
2023/09/06 13:21:59;;;;;;;4.03;2.80;;;;;;;;;;4934866;29;20063;-79
2023/09/06 13:24:27;;;;;;;5.25;3.10;;;29.80;83.50;;;;;;4929859;29;20040;-79
2023/09/06 13:26:59;;;;;;;4.63;2.75;;;30.00;83.60;;;;;;4942760;28;20107;-79
2023/09/06 13:29:25;;;;;;;6.18;3.13;;;30.00;81.80;;;;;;4947631;28;20700;-80
2023/09/06 13:31:51;;;;;;;4.07;2.90;;;30.10;82.10;;;;;;4942004;28;20023;-79
2023/09/06 13:34:17;;;;;;;5.07;3.33;;;;;;;;;;4930852;29;20030;-79
2023/09/06 13:36:43;;;;;;;4.93;2.97;;;;;;;;;;4951389;28;20036;-81
2023/09/06 13:39:19;;;;;;;4.20;3.05;;;29.70;80.70;;;;;;4942313;28;20043;-81
2023/09/06 13:41:49;;;;;;;4.47;3.00;;;;;;;;;;4931200;29;20064;-81
2023/09/06 13:44:15;;;;;;;5.85;3.25;;;;;;;;;;4944835;28;20066;-81
2023/09/06 13:46:41;;;;;;;4.53;2.83;;;29.70;79.40;;;;;;4943715;28;20036;-81
2023/09/06 13:49:07;;;;;;;4.20;2.90;;;;;;;;;;4930642;29;20559;-81
2023/09/06 13:51:39;;;;;;;3.55;2.50;;;;;;;;;;4947886;28;20404;-81
2023/09/06 13:54:28;;;;;;;3.67;2.70;;;30.10;79.80;;;;;;4932302;29;20024;-81
2023/09/06 13:57:03;;;;;;;4.78;3.20;;;;;;;;;;4922271;29;20044;-81
2023/09/06 13:59:29;;;;;;;4.28;2.90;;;30.00;78.50;;;;;;4942404;28;20560;-80
2023/09/06 14:01:55;;;;;;;5.18;2.97;;;29.90;79.20;;;;;;4934602;29;20031;-81
2023/09/06 14:04:21;;;;;;;4.68;3.15;;;29.90;79.30;;;;;;4930483;29;20483;-80
2023/09/06 14:06:47;;;;;;;3.47;2.53;;;29.90;79.20;;;;;;4940580;29;20034;-81
2023/09/06 14:09:31;;;;;;;4.97;3.15;;;29.90;78.50;;;;;;4936820;29;20090;-81
2023/09/06 14:12:26;;;;;;;4.80;2.90;;;30.00;78.80;;;;;;4934729;28;20088;-82
2023/09/06 14:15:04;;;;;;;5.78;2.85;;;30.10;78.20;;;;;;4931632;29;20109;-81
2023/09/06 14:22:10;;;;;;;5.28;3.20;;;30.30;77.90;;;;;;4926618;29;20039;-81
2023/09/06 14:25:00;;;;;;;5.70;2.95;;;;;;;;;;4876218;29;20052;-81
2023/09/06 14:28:09;;;;;;;6.03;3.35;;;30.30;77.00;;;;;;4933444;29;20028;-81
2023/09/06 14:31:13;;;;;;;3.85;2.95;;;30.30;77.60;;;;;;4928863;29;20047;-81
2023/09/06 14:34:15;;;;;;;3.40;2.65;;;30.20;76.10;;;;;;4936252;29;20032;-81
2023/09/06 14:36:47;;;;;;;3.75;2.53;;;30.20;77.10;;;;;;4937145;29;20036;-81
2023/09/06 14:39:32;;;;;;;4.15;2.90;;;30.30;76.70;;;;;;4929648;29;20024;-81
2023/09/06 14:42:02;;;;;;;5.85;3.10;;;28.50;75.00;;;;;;4915794;29;20043;-81
2023/09/06 14:44:28;;;;;;;4.30;2.90;;;;;;;;;;4933528;29;20035;-81
2023/09/06 14:47:22;;;;;;;3.92;2.90;;;30.30;76.30;;;;;;4933003;29;20027;-80
2023/09/06 14:49:49;;;;;;;3.88;2.90;;;;;;;;;;4913617;29;20075;-81
2023/09/06 14:52:16;;;;;;;4.68;2.80;;;;;;;;;;4944697;28;20028;-80
2023/09/06 14:54:53;;;;;;;3.80;2.75;;;30.10;76.80;;;;;;4933949;29;20035;-81
2023/09/06 14:57:40;;;;;;;3.58;2.85;;;;;;;;;;4936697;29;20032;-80
2023/09/06 15:00:37;;;;;;;4.03;2.80;;;29.80;76.80;;;;;;4934212;28;20051;-81
2023/09/06 15:04:03;;;;;;;5.10;3.13;;;30.00;76.60;;;;;;4933046;29;20362;-80